Time;durP1;ratioP1;P1;durP2;ratioP2;P2;SDS_P1;SDS_P2;PMS_P1;PMS_P2;Temp;Humidity;BMP_temperature;BMP_pressure;BME280_temperature;BME280_humidity;BME280_pressure;Samples;Min_cycle;Max_cycle;Signal;HPM_P1;HPM_P2
2022/08/07 00:00:47;;;;;;;2.17;0.50;;;14.00;99.90;;;;;;5044404;28;20056;-89
2022/08/07 00:03:12;;;;;;;0.90;0.40;;;13.90;99.90;;;;;;5054168;28;20020;-89
2022/08/07 00:05:38;;;;;;;1.80;0.40;;;13.90;99.90;;;;;;5051708;28;20123;-89
2022/08/07 00:08:04;;;;;;;1.80;0.43;;;13.80;99.90;;;;;;5051169;28;20473;-89
2022/08/07 00:10:30;;;;;;;2.80;0.50;;;13.80;99.90;;;;;;5044033;28;20026;-88
2022/08/07 00:12:57;;;;;;;3.20;0.68;;;13.80;99.90;;;;;;5066359;28;20161;-89
2022/08/07 00:15:24;;;;;;;3.97;0.60;;;13.70;99.90;;;;;;5050430;28;20116;-89
2022/08/07 00:17:50;;;;;;;1.60;0.68;;;13.70;99.90;;;;;;5046233;28;20030;-88
2022/08/07 00:20:15;;;;;;;2.55;0.60;;;13.70;99.90;;;;;;5048542;28;20094;-88
2022/08/07 00:22:41;;;;;;;1.40;0.50;;;13.60;99.90;;;;;;5042570;28;20026;-88
2022/08/07 00:25:08;;;;;;;3.13;0.50;;;13.60;99.90;;;;;;5055295;28;20038;-88
2022/08/07 00:27:34;;;;;;;1.85;0.50;;;13.50;99.90;;;;;;5050997;28;20087;-89
2022/08/07 00:30:00;;;;;;;2.58;0.60;;;13.50;99.90;;;;;;5053803;28;20033;-88
2022/08/07 00:32:26;;;;;;;2.17;0.60;;;13.50;99.90;;;;;;5058301;28;20024;-89
2022/08/07 00:34:51;;;;;;;3.00;0.70;;;13.40;99.90;;;;;;5043102;28;20029;-88
2022/08/07 00:37:17;;;;;;;1.88;0.70;;;13.40;99.90;;;;;;5053498;28;20147;-88
2022/08/07 00:39:44;;;;;;;2.70;0.73;;;13.40;99.90;;;;;;5050161;28;20112;-88
2022/08/07 00:42:09;;;;;;;1.60;0.70;;;13.30;99.90;;;;;;5048000;28;20025;-88
2022/08/07 00:44:35;;;;;;;2.78;0.60;;;13.30;99.90;;;;;;5054024;28;20396;-88
2022/08/07 00:47:03;;;;;;;2.58;0.60;;;13.20;99.90;;;;;;5054283;28;20083;-88
2022/08/07 00:49:29;;;;;;;1.55;0.50;;;13.20;99.90;;;;;;5048144;28;20511;-89
2022/08/07 00:51:54;;;;;;;1.83;0.60;;;13.20;99.90;;;;;;5051767;28;20029;-89
2022/08/07 00:54:20;;;;;;;3.55;0.63;;;13.20;99.90;;;;;;5051146;28;20028;-88
2022/08/07 00:56:47;;;;;;;2.30;0.68;;;13.10;99.90;;;;;;5049242;28;20477;-88
2022/08/07 00:59:13;;;;;;;1.33;0.50;;;13.20;99.90;;;;;;5039145;28;20020;-88
2022/08/07 01:01:38;;;;;;;3.72;0.80;;;13.10;99.90;;;;;;5054402;28;20033;-89
2022/08/07 01:04:05;;;;;;;2.03;1.02;;;13.10;99.90;;;;;;5054830;28;20127;-88
2022/08/07 01:06:31;;;;;;;2.17;0.70;;;13.10;99.90;;;;;;5052730;28;20033;-88
2022/08/07 01:08:58;;;;;;;1.85;0.60;;;13.00;99.90;;;;;;5053056;28;20027;-88
2022/08/07 01:11:23;;;;;;;1.98;0.88;;;13.00;99.90;;;;;;5054433;28;20133;-89
2022/08/07 01:13:49;;;;;;;2.22;0.90;;;13.00;99.90;;;;;;5052108;28;20456;-88
2022/08/07 01:16:15;;;;;;;3.42;0.70;;;13.00;99.90;;;;;;5049078;28;20043;-88
2022/08/07 01:18:40;;;;;;;1.80;0.60;;;13.00;99.90;;;;;;5050487;28;20040;-88
2022/08/07 01:21:14;;;;;;;1.80;0.80;;;12.90;99.90;;;;;;5055241;28;20025;-89
2022/08/07 01:23:42;;;;;;;2.20;0.75;;;12.90;99.90;;;;;;5055188;28;20037;-88
2022/08/07 01:26:09;;;;;;;2.33;0.80;;;12.80;99.90;;;;;;5053265;28;20029;-89
2022/08/07 01:28:36;;;;;;;3.08;1.25;;;12.80;99.90;;;;;;5050805;28;20110;-87
2022/08/07 01:31:02;;;;;;;2.95;0.70;;;12.70;99.90;;;;;;5053891;28;20056;-87
2022/08/07 01:33:28;;;;;;;2.72;0.82;;;12.70;99.90;;;;;;5054393;28;20021;-88
2022/08/07 01:35:55;;;;;;;4.05;0.90;;;12.70;99.90;;;;;;5052712;28;20048;-88
2022/08/07 01:38:21;;;;;;;2.50;0.90;;;12.70;99.90;;;;;;5054251;28;20047;-88
2022/08/07 01:40:49;;;;;;;2.15;0.75;;;12.60;99.90;;;;;;5051866;28;20031;-88
2022/08/07 01:43:15;;;;;;;3.10;0.75;;;12.60;99.90;;;;;;5062419;28;20025;-88
2022/08/07 01:45:41;;;;;;;2.05;0.82;;;12.50;99.90;;;;;;5047431;28;20040;-88
2022/08/07 01:48:07;;;;;;;4.25;1.10;;;12.50;99.90;;;;;;5043640;28;20051;-88
2022/08/07 01:50:36;;;;;;;3.95;1.00;;;12.50;99.90;;;;;;5051168;28;20052;-89
2022/08/07 01:53:04;;;;;;;2.25;1.23;;;12.40;99.90;;;;;;5048341;28;20029;-88
2022/08/07 01:55:36;;;;;;;2.33;0.95;;;12.40;99.90;;;;;;5053282;28;20033;-88
2022/08/07 01:58:08;;;;;;;3.73;1.33;;;12.40;99.90;;;;;;5054378;28;20017;-89
2022/08/07 02:00:36;;;;;;;3.00;0.80;;;12.30;99.90;;;;;;5064969;28;20016;-88
2022/08/07 02:03:08;;;;;;;2.70;1.10;;;12.20;99.90;;;;;;5061671;28;20047;-89
2022/08/07 02:05:40;;;;;;;2.75;1.25;;;12.20;99.90;;;;;;5051332;28;20040;-88
2022/08/07 02:08:09;;;;;;;;;;;12.10;99.90;;;;;;5048885;28;20036;-89
2022/08/07 02:10:36;;;;;;;4.38;1.35;;;12.10;99.90;;;;;;5053899;28;20039;-89
2022/08/07 02:13:09;;;;;;;2.55;1.40;;;12.00;99.90;;;;;;5045784;28;20477;-88
2022/08/07 02:15:38;;;;;;;3.58;1.27;;;12.00;99.90;;;;;;5065171;28;20115;-89
2022/08/07 02:18:05;;;;;;;4.50;2.03;;;12.00;99.90;;;;;;5052477;28;20095;-90
2022/08/07 02:20:32;;;;;;;4.43;1.15;;;11.90;99.90;;;;;;5050062;28;20037;-89
2022/08/07 02:23:02;;;;;;;3.85;1.30;;;11.90;99.90;;;;;;5053544;28;20101;-89
2022/08/07 02:25:35;;;;;;;4.03;1.50;;;11.90;99.90;;;;;;5050321;28;20401;-89
2022/08/07 02:28:01;;;;;;;4.63;1.33;;;11.80;99.90;;;;;;5047788;28;20033;-90
2022/08/07 02:30:29;;;;;;;4.85;1.65;;;11.70;99.90;;;;;;5050224;28;20056;-89
2022/08/07 02:32:57;;;;;;;4.13;1.42;;;11.70;99.90;;;;;;5050369;28;20039;-89
2022/08/07 02:35:24;;;;;;;3.08;1.60;;;11.70;99.90;;;;;;5050150;28;20079;-89
2022/08/07 02:37:50;;;;;;;13.85;2.00;;;11.70;99.90;;;;;;5051379;28;20042;-89
2022/08/07 02:40:17;;;;;;;3.50;1.85;;;11.70;99.90;;;;;;5039206;28;20365;-89
2022/08/07 02:42:43;;;;;;;4.50;2.15;;;11.80;99.90;;;;;;5043237;28;20032;-89
2022/08/07 02:45:12;;;;;;;3.00;1.70;;;11.70;99.90;;;;;;5046428;28;20032;-89
2022/08/07 02:47:38;;;;;;;3.28;1.95;;;11.70;99.90;;;;;;5044908;28;20028;-89
2022/08/07 02:50:04;;;;;;;4.60;1.98;;;11.70;99.90;;;;;;5050979;28;20393;-88
2022/08/07 02:52:55;;;;;;;5.25;1.70;;;11.70;99.90;;;;;;5065545;28;20059;-88
2022/08/07 02:55:24;;;;;;;3.10;1.75;;;11.70;99.90;;;;;;5045061;28;20034;-89
2022/08/07 02:57:51;;;;;;;7.55;2.08;;;11.60;99.90;;;;;;5051068;28;20504;-90
2022/08/07 03:00:17;;;;;;;4.45;2.15;;;11.60;99.90;;;;;;5035601;28;20158;-87
2022/08/07 03:02:46;;;;;;;3.75;1.80;;;11.60;99.90;;;;;;5046689;28;20113;-87
2022/08/07 03:05:13;;;;;;;6.82;2.10;;;11.70;99.90;;;;;;5045547;28;20024;-87
2022/08/07 03:07:40;;;;;;;9.05;1.75;;;11.60;99.90;;;;;;5048455;28;20025;-87
2022/08/07 03:10:07;;;;;;;3.20;2.03;;;11.60;99.90;;;;;;5049972;28;20171;-87
2022/08/07 03:12:33;;;;;;;5.03;1.92;;;11.60;99.90;;;;;;5048544;28;20120;-87
2022/08/07 03:15:00;;;;;;;6.22;2.38;;;11.60;99.90;;;;;;5051646;28;20033;-86
2022/08/07 03:17:26;;;;;;;4.45;2.10;;;11.60;99.90;;;;;;5053971;28;20023;-87
2022/08/07 03:19:53;;;;;;;4.00;1.80;;;11.60;99.90;;;;;;5047732;28;20108;-87
2022/08/07 03:22:20;;;;;;;3.38;1.80;;;11.60;99.90;;;;;;5033460;28;20029;-87
2022/08/07 03:24:47;;;;;;;3.65;1.80;;;11.50;99.90;;;;;;5048052;28;20034;-86
2022/08/07 03:27:14;;;;;;;3.80;1.83;;;11.50;99.90;;;;;;5048311;28;20021;-87
2022/08/07 03:29:45;;;;;;;5.13;2.60;;;11.40;99.90;;;;;;5063555;28;20124;-88
2022/08/07 03:32:11;;;;;;;3.47;2.15;;;11.40;99.90;;;;;;5048600;28;20023;-88
2022/08/07 03:34:39;;;;;;;4.40;2.20;;;11.30;99.90;;;;;;5043101;28;20034;-88
2022/08/07 03:37:06;;;;;;;4.43;2.47;;;11.30;99.90;;;;;;5042037;28;20025;-88
2022/08/07 03:39:34;;;;;;;5.78;2.53;;;11.30;99.90;;;;;;5047263;28;20026;-89
2022/08/07 03:42:02;;;;;;;4.65;2.50;;;11.30;99.90;;;;;;5039450;28;20025;-88
2022/08/07 03:44:28;;;;;;;5.28;2.47;;;11.30;99.90;;;;;;5048404;28;20477;-88
2022/08/07 03:46:54;;;;;;;6.97;3.13;;;11.30;99.90;;;;;;5048334;28;20429;-89
2022/08/07 03:49:20;;;;;;;5.18;2.80;;;11.30;99.90;;;;;;5047734;28;20035;-88
2022/08/07 03:51:46;;;;;;;7.75;3.40;;;11.30;99.90;;;;;;5050516;28;20039;-88
2022/08/07 03:54:12;;;;;;;6.38;3.72;;;11.40;99.90;;;;;;5049304;28;20017;-89
2022/08/07 03:56:39;;;;;;;6.53;3.72;;;11.40;99.90;;;;;;5050928;28;20094;-88
2022/08/07 03:59:06;;;;;;;6.35;3.40;;;11.40;99.90;;;;;;5065026;28;20119;-88
2022/08/07 04:01:34;;;;;;;5.80;2.97;;;11.50;99.90;;;;;;5050753;28;20021;-88
2022/08/07 04:04:00;;;;;;;7.35;3.88;;;11.50;99.90;;;;;;5050368;28;20055;-88
2022/08/07 04:06:26;;;;;;;6.88;3.22;;;11.50;99.90;;;;;;5047305;28;20444;-88
2022/08/07 04:08:52;;;;;;;5.47;2.90;;;11.50;99.90;;;;;;5040530;28;20025;-88
2022/08/07 04:11:18;;;;;;;6.55;3.42;;;11.40;99.90;;;;;;5052243;28;20036;-88
2022/08/07 04:13:45;;;;;;;5.28;3.22;;;11.40;99.90;;;;;;5044345;28;20021;-88
2022/08/07 04:16:11;;;;;;;6.82;3.30;;;11.40;99.90;;;;;;5054895;28;20057;-88
2022/08/07 04:18:37;;;;;;;4.93;2.78;;;11.40;99.90;;;;;;5036686;28;20025;-88
2022/08/07 04:21:03;;;;;;;6.60;3.63;;;11.30;99.90;;;;;;5054060;28;20489;-88
2022/08/07 04:23:30;;;;;;;7.95;3.58;;;11.30;99.90;;;;;;5046901;28;20021;-89
2022/08/07 04:25:56;;;;;;;7.35;3.25;;;11.30;99.90;;;;;;5049597;28;20064;-89
2022/08/07 04:28:21;;;;;;;7.13;3.85;;;11.30;99.90;;;;;;5056167;28;20021;-89
2022/08/07 04:30:49;;;;;;;8.02;4.32;;;11.20;99.90;;;;;;5046875;28;20445;-89
2022/08/07 04:33:16;;;;;;;6.53;3.50;;;11.20;99.90;;;;;;5045137;28;20029;-88
2022/08/07 04:35:45;;;;;;;9.43;3.72;;;11.20;99.90;;;;;;5041905;28;20036;-88
2022/08/07 04:38:11;;;;;;;8.18;3.88;;;11.20;99.90;;;;;;5061839;28;20037;-88
2022/08/07 04:40:41;;;;;;;7.10;3.67;;;11.20;99.90;;;;;;5050881;28;20032;-88
2022/08/07 04:43:07;;;;;;;8.82;4.47;;;11.20;99.90;;;;;;5048769;28;20389;-88
2022/08/07 04:45:50;;;;;;;6.50;3.47;;;11.20;99.90;;;;;;5050829;28;20033;-87
2022/08/07 04:48:26;;;;;;;7.43;3.50;;;11.20;99.90;;;;;;5048531;28;20025;-89
2022/08/07 04:51:02;;;;;;;6.93;3.80;;;11.20;99.90;;;;;;5048177;28;20021;-90
2022/08/07 04:53:40;;;;;;;5.38;3.65;;;11.20;99.90;;;;;;5049567;28;20025;-89
2022/08/07 04:56:43;;;;;;;7.55;4.03;;;11.20;99.90;;;;;;5046152;28;20120;-89
2022/08/07 04:59:30;;;;;;;9.18;4.32;;;11.20;99.90;;;;;;4994955;28;20040;-89
2022/08/07 05:02:12;;;;;;;6.45;4.00;;;11.20;99.90;;;;;;5049705;28;20029;-89
2022/08/07 05:05:07;;;;;;;6.72;3.78;;;11.20;99.90;;;;;;5049247;28;20033;-89
2022/08/07 05:07:46;;;;;;;7.50;4.22;;;11.20;99.90;;;;;;5043388;28;20040;-89
2022/08/07 05:10:23;;;;;;;8.63;4.40;;;11.30;99.90;;;;;;5048848;28;20059;-82
2022/08/07 05:13:18;;;;;;;7.68;4.50;;;11.30;99.90;;;;;;5052476;28;20033;-83
2022/08/07 05:15:48;;;;;;;8.55;4.28;;;11.40;99.90;;;;;;5041963;28;20511;-83
2022/08/07 05:18:27;;;;;;;10.02;4.53;;;11.50;99.90;;;;;;5049763;28;20040;-83
2022/08/07 05:20:57;;;;;;;7.68;4.25;;;11.60;99.90;;;;;;5050961;28;20088;-82
2022/08/07 05:23:49;;;;;;;8.00;4.63;;;11.60;99.90;;;;;;5052270;28;20028;-82
2022/08/07 05:26:21;;;;;;;8.13;4.63;;;11.80;99.90;;;;;;5050610;28;20056;-82
2022/08/07 05:28:50;;;;;;;6.43;3.80;;;11.80;99.90;;;;;;5051362;28;20024;-81
2022/08/07 05:31:18;;;;;;;10.32;4.53;;;11.90;99.90;;;;;;5049715;28;20172;-83
2022/08/07 05:33:45;;;;;;;9.07;4.55;;;12.00;99.90;;;;;;5048715;28;20017;-83
2022/08/07 05:36:12;;;;;;;8.57;4.32;;;12.10;99.90;;;;;;5051898;28;20029;-83
2022/08/07 05:38:39;;;;;;;9.13;5.00;;;12.10;99.90;;;;;;5051847;28;20053;-83
2022/08/07 05:41:06;;;;;;;9.68;5.85;;;12.20;99.90;;;;;;5042130;28;20389;-82
2022/08/07 05:43:33;;;;;;;12.25;5.03;;;12.40;99.90;;;;;;5047322;28;20389;-82
2022/08/07 05:46:01;;;;;;;9.50;4.53;;;12.60;99.90;;;;;;5038110;28;20044;-82
2022/08/07 05:48:28;;;;;;;8.90;4.90;;;12.80;99.90;;;;;;5047487;28;20511;-82
2022/08/07 05:50:54;;;;;;;8.15;5.40;;;13.00;99.90;;;;;;5065049;28;20032;-82
2022/08/07 05:53:20;;;;;;;8.57;5.20;;;13.30;99.90;;;;;;5054966;28;20024;-82
2022/08/07 05:55:46;;;;;;;7.90;5.50;;;13.50;99.90;;;;;;5051668;28;20021;-82
2022/08/07 05:58:13;;;;;;;9.15;5.18;;;13.70;99.90;;;;;;5050307;28;20028;-83
2022/08/07 06:00:39;;;;;;;8.65;5.22;;;13.90;99.90;;;;;;5049596;28;20051;-82
2022/08/07 06:03:07;;;;;;;10.52;5.57;;;14.00;99.90;;;;;;5051130;28;20036;-82
2022/08/07 06:05:33;;;;;;;11.88;5.53;;;14.20;99.90;;;;;;5055184;28;20548;-82
2022/08/07 06:08:00;;;;;;;9.98;5.78;;;14.30;99.90;;;;;;5052575;28;20111;-81
2022/08/07 06:10:26;;;;;;;10.15;4.82;;;14.30;99.90;;;;;;5053626;28;20413;-82
2022/08/07 06:12:52;;;;;;;7.72;5.63;;;14.50;99.90;;;;;;5053766;28;20527;-81
2022/08/07 06:15:19;;;;;;;9.85;6.53;;;14.60;99.90;;;;;;5066117;28;20033;-82
2022/08/07 06:17:45;;;;;;;9.18;6.28;;;14.70;99.90;;;;;;5049776;28;20029;-81
2022/08/07 06:20:12;;;;;;;9.30;6.15;;;14.80;99.90;;;;;;5044299;28;20029;-82
2022/08/07 06:22:39;;;;;;;10.00;5.60;;;14.90;99.90;;;;;;5048262;28;20031;-82
2022/08/07 06:25:05;;;;;;;10.23;6.40;;;15.00;99.90;;;;;;5045314;28;20041;-82
2022/08/07 06:27:31;;;;;;;11.52;6.78;;;15.20;99.90;;;;;;5032524;28;20025;-82
2022/08/07 06:29:56;;;;;;;12.18;6.57;;;15.20;99.90;;;;;;5044075;28;20032;-82
2022/08/07 06:32:22;;;;;;;10.10;6.93;;;15.40;99.90;;;;;;5041885;28;20385;-82
2022/08/07 06:34:47;;;;;;;12.85;6.15;;;15.50;99.90;;;;;;5051630;28;20388;-81
2022/08/07 06:37:13;;;;;;;8.45;5.35;;;15.50;99.90;;;;;;5068012;28;20024;-82
2022/08/07 06:39:39;;;;;;;11.07;6.13;;;15.60;99.90;;;;;;5035717;28;20041;-82
2022/08/07 06:42:10;;;;;;;9.75;6.43;;;15.80;99.90;;;;;;5046161;28;20022;-84
2022/08/07 06:44:38;;;;;;;9.27;5.80;;;15.90;99.90;;;;;;5046402;28;20024;-81
2022/08/07 06:47:04;;;;;;;11.02;5.35;;;16.00;99.90;;;;;;5041386;28;20033;-82
2022/08/07 06:49:29;;;;;;;10.30;5.80;;;16.10;99.90;;;;;;5047884;28;20059;-83
2022/08/07 06:51:56;;;;;;;8.60;6.07;;;16.20;99.90;;;;;;5063290;28;20064;-82
2022/08/07 06:54:24;;;;;;;8.57;6.05;;;16.30;99.90;;;;;;5048001;28;20103;-83
2022/08/07 06:56:52;;;;;;;10.88;6.10;;;16.40;99.90;;;;;;5052388;28;20024;-82
2022/08/07 06:59:26;;;;;;;9.45;5.53;;;16.40;99.90;;;;;;5058882;28;20021;-83
2022/08/07 07:01:52;;;;;;;7.88;5.13;;;16.50;99.90;;;;;;5049338;28;20021;-83
2022/08/07 07:04:19;;;;;;;10.07;5.00;;;16.50;99.90;;;;;;5050736;28;20027;-83
2022/08/07 07:06:45;;;;;;;9.48;5.15;;;16.60;99.90;;;;;;5055871;28;20123;-83
2022/08/07 07:09:20;;;;;;;9.02;5.95;;;16.70;99.90;;;;;;5052097;28;20017;-83
2022/08/07 07:12:07;;;;;;;8.57;5.10;;;16.80;99.90;;;;;;5055149;28;20037;-83
2022/08/07 07:15:09;;;;;;;10.70;5.95;;;17.00;99.90;;;;;;5062741;28;20039;-83
2022/08/07 07:17:57;;;;;;;9.38;4.50;;;17.20;99.90;;;;;;5050302;28;20393;-82
2022/08/07 07:20:30;;;;;;;13.45;4.85;;;17.30;99.90;;;;;;5051356;28;20021;-83
2022/08/07 07:22:57;;;;;;;6.80;4.40;;;17.40;99.90;;;;;;5049212;28;20138;-82
2022/08/07 07:25:22;;;;;;;6.57;4.55;;;17.50;99.90;;;;;;5032800;28;20045;-83
2022/08/07 07:28:00;;;;;;;6.13;4.28;;;17.70;99.90;;;;;;5050295;28;20028;-82
2022/08/07 07:30:36;;;;;;;6.55;4.40;;;17.80;99.90;;;;;;5047856;28;20048;-83
2022/08/07 07:33:06;;;;;;;8.30;4.40;;;17.90;99.90;;;;;;5031058;28;20022;-82
2022/08/07 07:35:34;;;;;;;7.07;3.72;;;18.00;99.90;;;;;;5047547;28;20066;-82
2022/08/07 07:38:01;;;;;;;7.35;3.90;;;18.10;99.90;;;;;;5044725;28;20754;-82
2022/08/07 07:40:29;;;;;;;4.55;3.15;;;18.20;99.90;;;;;;5040315;28;20064;-83
2022/08/07 07:42:56;;;;;;;5.60;3.33;;;18.30;99.90;;;;;;5066827;28;20531;-83
2022/08/07 07:45:26;;;;;;;5.18;3.20;;;18.50;99.90;;;;;;5054535;28;20033;-83
2022/08/07 07:47:53;;;;;;;7.78;3.42;;;18.60;99.90;;;;;;5049938;28;20025;-83
2022/08/07 07:50:21;;;;;;;5.85;2.97;;;18.70;99.90;;;;;;5050162;28;20028;-83
2022/08/07 07:52:48;;;;;;;5.18;3.03;;;18.80;99.50;;;;;;5046453;28;20024;-83
2022/08/07 07:55:17;;;;;;;6.53;3.17;;;18.90;99.10;;;;;;5070153;28;20025;-83
2022/08/07 07:57:44;;;;;;;7.40;3.45;;;19.00;98.90;;;;;;5048986;28;20043;-83
2022/08/07 08:00:12;;;;;;;5.30;3.28;;;19.20;98.60;;;;;;5051628;28;20053;-83
2022/08/07 08:02:40;;;;;;;3.97;2.67;;;19.30;98.30;;;;;;5046802;28;20075;-83
2022/08/07 08:05:08;;;;;;;5.53;2.53;;;19.30;97.80;;;;;;5043366;28;20501;-83
2022/08/07 08:07:35;;;;;;;4.18;2.47;;;19.40;97.50;;;;;;5048487;28;20033;-83
2022/08/07 08:10:02;;;;;;;6.03;2.53;;;19.50;96.90;;;;;;5060602;28;20044;-83
2022/08/07 08:12:29;;;;;;;4.43;2.42;;;19.50;96.30;;;;;;5073106;28;20039;-83
2022/08/07 08:14:54;;;;;;;4.18;1.98;;;19.60;96.10;;;;;;5049882;28;20021;-83
2022/08/07 08:17:22;;;;;;;4.97;2.75;;;19.70;95.90;;;;;;5051483;28;20417;-82
2022/08/07 08:19:51;;;;;;;4.18;2.10;;;19.80;95.50;;;;;;5039912;28;20058;-82
2022/08/07 08:27:54;;;;;;;3.35;2.00;;;20.00;94.50;;;;;;5052493;28;20048;-82
2022/08/07 08:30:26;;;;;;;3.88;1.88;;;20.00;94.20;;;;;;5053186;28;20064;-82
2022/08/07 08:32:55;;;;;;;6.13;2.13;;;20.10;94.00;;;;;;5039216;28;20032;-83
2022/08/07 08:35:26;;;;;;;3.22;1.80;;;20.10;93.70;;;;;;5038804;28;20033;-83
2022/08/07 08:37:57;;;;;;;4.07;1.63;;;20.20;93.40;;;;;;5042152;28;20047;-83
2022/08/07 08:40:31;;;;;;;2.58;1.20;;;20.30;93.10;;;;;;5057041;28;20588;-81
2022/08/07 08:43:32;;;;;;;3.58;1.55;;;20.30;92.60;;;;;;5050546;28;20021;-82
2022/08/07 08:46:08;;;;;;;4.47;1.25;;;20.40;91.90;;;;;;5052222;28;20408;-82
2022/08/07 08:49:00;;;;;;;5.78;1.48;;;20.40;92.10;;;;;;5044075;28;20033;-82
2022/08/07 08:51:40;;;;;;;4.95;1.73;;;20.60;91.90;;;;;;5048768;28;20485;-84
2022/08/07 08:54:14;;;;;;;3.67;1.45;;;20.60;91.40;;;;;;5053144;28;20025;-83
2022/08/07 08:56:43;;;;;;;3.33;1.35;;;20.60;91.30;;;;;;5048539;28;20058;-84
2022/08/07 08:59:26;;;;;;;2.92;1.85;;;20.70;91.00;;;;;;5059935;28;20480;-84
2022/08/07 09:02:03;;;;;;;4.63;1.88;;;20.80;90.60;;;;;;5055853;28;20028;-84
2022/08/07 09:04:50;;;;;;;2.55;1.65;;;20.80;90.20;;;;;;5056832;28;20029;-85
2022/08/07 09:07:28;;;;;;;3.33;1.50;;;20.80;90.30;;;;;;5065801;28;20032;-84
2022/08/07 09:10:00;;;;;;;2.80;1.42;;;20.90;90.40;;;;;;5052214;28;20075;-84
2022/08/07 09:12:25;;;;;;;;;;;21.10;89.90;;;;;;5058285;28;20439;-84
2022/08/07 09:15:17;;;;;;;3.70;1.45;;;21.20;90.10;;;;;;5049835;28;19913;-84
2022/08/07 09:18:10;;;;;;;4.97;1.63;;;21.30;90.00;;;;;;5047360;28;20125;-86
2022/08/07 09:21:05;;;;;;;6.25;1.92;;;21.40;89.20;;;;;;5052498;28;20048;-86
2022/08/07 09:23:35;;;;;;;7.18;1.20;;;21.60;88.20;;;;;;5049055;28;20481;-85
2022/08/07 09:26:15;;;;;;;6.90;1.52;;;21.60;87.30;;;;;;5051572;28;20063;-85
2022/08/07 09:28:45;;;;;;;2.20;0.80;;;21.70;86.00;;;;;;5047855;28;20037;-86
2022/08/07 09:31:31;;;;;;;2.35;1.30;;;21.80;84.60;;;;;;5054477;28;20477;-86
2022/08/07 09:34:07;;;;;;;3.40;1.05;;;21.90;83.90;;;;;;5049784;28;20139;-87
2022/08/07 09:36:42;;;;;;;2.15;1.27;;;21.90;83.00;;;;;;5046563;28;20485;-85
2022/08/07 09:39:17;;;;;;;4.95;1.30;;;22.00;83.00;;;;;;5043519;28;20044;-86
2022/08/07 09:42:29;;;;;;;2.50;1.48;;;22.00;83.00;;;;;;5043565;28;20044;-86
2022/08/07 09:45:22;;;;;;;2.20;1.42;;;22.00;82.40;;;;;;5047864;28;20448;-87
2022/08/07 09:48:26;;;;;;;4.82;1.58;;;22.10;81.50;;;;;;5045519;28;20032;-87
2022/08/07 09:51:04;;;;;;;2.28;1.10;;;22.20;80.70;;;;;;5022648;28;20034;-86
2022/08/07 09:53:37;;;;;;;2.47;1.17;;;22.20;79.60;;;;;;5046997;28;20029;-87
2022/08/07 09:56:24;;;;;;;2.85;0.98;;;22.20;79.00;;;;;;5051828;28;20126;-87
2022/08/07 09:59:00;;;;;;;2.42;1.13;;;22.30;78.30;;;;;;5048077;28;20172;-87
2022/08/07 10:01:37;;;;;;;2.53;1.05;;;22.30;77.70;;;;;;5050822;28;20028;-87
2022/08/07 10:04:26;;;;;;;1.67;0.98;;;22.30;77.60;;;;;;5053814;28;20036;-87
2022/08/07 10:07:21;;;;;;;2.08;1.00;;;22.30;77.60;;;;;;5048222;28;20480;-88
2022/08/07 10:10:22;;;;;;;2.70;0.75;;;22.30;77.60;;;;;;5027379;28;20052;-84
2022/08/07 10:12:56;;;;;;;2.28;1.00;;;22.50;77.70;;;;;;5063490;28;20041;-87
2022/08/07 10:15:37;;;;;;;2.35;0.98;;;22.60;76.30;;;;;;5068379;28;20540;-87
2022/08/07 10:18:18;;;;;;;2.10;0.70;;;22.60;75.50;;;;;;5041312;28;20024;-86
2022/08/07 10:21:01;;;;;;;17.25;1.40;;;22.50;75.10;;;;;;5045325;28;20055;-87
2022/08/07 10:23:29;;;;;;;;;;;22.30;75.30;;;;;;5040664;28;20033;-87
2022/08/07 10:26:26;;;;;;;2.40;0.75;;;22.10;76.40;;;;;;5060333;28;19916;-87
2022/08/07 10:29:04;;;;;;;2.83;0.70;;;22.20;76.10;;;;;;5027646;28;20033;-87
2022/08/07 10:31:58;;;;;;;3.03;0.80;;;22.40;75.40;;;;;;5048309;28;20029;-85
2022/08/07 10:35:02;;;;;;;2.92;0.80;;;22.60;74.40;;;;;;5048725;28;20024;-87
2022/08/07 10:37:49;;;;;;;3.05;0.63;;;22.80;73.90;;;;;;5057053;28;20044;-87
2022/08/07 10:40:43;;;;;;;2.15;0.68;;;22.90;73.10;;;;;;5051622;28;20582;-87
2022/08/07 10:43:31;;;;;;;2.95;0.75;;;23.10;72.60;;;;;;5049790;28;20079;-87
2022/08/07 10:46:00;;;;;;;2.55;0.70;;;23.20;72.20;;;;;;5046418;28;20052;-87
2022/08/07 10:48:47;;;;;;;2.75;0.77;;;23.30;71.40;;;;;;5046453;28;20473;-87
2022/08/07 10:51:31;;;;;;;2.15;0.85;;;23.50;70.90;;;;;;5053419;28;20033;-87
2022/08/07 10:54:09;;;;;;;2.47;0.63;;;23.60;70.00;;;;;;5048510;28;20013;-89
2022/08/07 10:57:11;;;;;;;3.05;0.65;;;23.70;68.80;;;;;;5048878;28;21006;-87
2022/08/07 11:00:06;;;;;;;2.08;0.90;;;23.60;68.50;;;;;;5048433;28;20092;-88
2022/08/07 11:02:57;;;;;;;1.90;0.75;;;23.70;68.30;;;;;;5050506;28;20029;-87
2022/08/07 11:05:29;;;;;;;3.38;0.80;;;23.80;68.20;;;;;;5042918;28;20025;-87
2022/08/07 11:07:57;;;;;;;1.52;0.77;;;23.90;68.00;;;;;;5045143;28;20033;-88
2022/08/07 11:10:25;;;;;;;2.72;0.70;;;24.00;67.60;;;;;;5047158;28;20020;-86
2022/08/07 11:13:02;;;;;;;1.55;0.90;;;24.20;66.80;;;;;;5062239;28;20488;-86
2022/08/07 11:15:34;;;;;;;3.17;0.60;;;24.30;67.40;;;;;;5051604;28;20420;-87
2022/08/07 11:18:13;;;;;;;2.13;0.80;;;24.40;66.20;;;;;;5054439;28;20078;-86
2022/08/07 11:20:55;;;;;;;2.38;0.88;;;24.40;64.80;;;;;;5051570;28;20053;-85
2022/08/07 11:23:43;;;;;;;1.92;0.80;;;24.20;64.00;;;;;;5048959;28;20025;-87
2022/08/07 11:26:23;;;;;;;1.40;0.60;;;24.10;64.00;;;;;;5045771;28;20492;-87
2022/08/07 11:29:04;;;;;;;2.00;0.65;;;23.70;64.40;;;;;;5049815;28;20750;-86
2022/08/07 11:31:45;;;;;;;2.90;0.60;;;23.40;65.10;;;;;;5045893;28;20479;-86
2022/08/07 11:34:30;;;;;;;2.13;0.60;;;23.30;65.80;;;;;;5060721;28;20405;-88
2022/08/07 11:37:17;;;;;;;1.85;0.80;;;23.40;65.60;;;;;;5045944;28;20028;-87
2022/08/07 11:40:08;;;;;;;3.75;1.15;;;23.50;65.60;;;;;;5048595;28;20408;-86
2022/08/07 11:42:47;;;;;;;3.67;1.10;;;23.70;65.80;;;;;;5042318;28;20029;-86
2022/08/07 11:45:48;;;;;;;1.38;0.60;;;23.90;65.00;;;;;;5045742;28;21884;-85
2022/08/07 11:48:36;;;;;;;2.45;0.80;;;24.00;64.10;;;;;;5052256;28;20025;-86
2022/08/07 11:51:16;;;;;;;1.45;0.75;;;24.10;64.10;;;;;;5044128;28;20025;-86
2022/08/07 11:54:03;;;;;;;1.95;0.80;;;24.20;63.80;;;;;;5048072;28;20485;-86
2022/08/07 11:56:56;;;;;;;5.60;1.00;;;24.20;63.00;;;;;;5039357;28;20030;-86
2022/08/07 11:59:52;;;;;;;2.58;0.70;;;24.20;63.60;;;;;;5064040;28;20025;-86
2022/08/07 12:02:31;;;;;;;2.63;0.70;;;24.30;63.50;;;;;;5050378;28;21558;-86
2022/08/07 12:05:10;;;;;;;2.67;0.70;;;24.30;63.10;;;;;;5056102;28;20381;-86
2022/08/07 12:07:59;;;;;;;1.20;0.60;;;24.40;63.50;;;;;;5060259;28;20513;-87
2022/08/07 12:10:50;;;;;;;2.45;0.90;;;24.50;62.20;;;;;;5054181;28;20025;-87
2022/08/07 12:13:25;;;;;;;1.88;0.60;;;24.50;60.90;;;;;;5052083;28;20090;-87
2022/08/07 12:15:55;;;;;;;1.67;0.50;;;24.40;60.80;;;;;;5039386;28;20115;-88
2022/08/07 12:18:28;;;;;;;1.63;0.60;;;24.50;60.80;;;;;;5045770;28;20017;-87
2022/08/07 12:21:19;;;;;;;1.40;0.50;;;24.50;60.70;;;;;;5054577;28;20120;-88
2022/08/07 12:24:20;;;;;;;2.67;0.75;;;24.60;60.20;;;;;;5052281;28;20057;-87
2022/08/07 12:27:12;;;;;;;1.95;0.65;;;24.60;59.90;;;;;;5049592;28;20178;-88
2022/08/07 12:29:50;;;;;;;;;;;24.70;60.00;;;;;;5052890;28;20040;-87
2022/08/07 12:32:43;;;;;;;1.67;0.50;;;24.70;60.30;;;;;;5044795;28;19939;-87
2022/08/07 12:35:12;;;;;;;2.03;0.63;;;24.90;60.50;;;;;;5045437;28;20066;-88
2022/08/07 12:37:40;;;;;;;1.65;0.55;;;25.00;58.80;;;;;;5053166;28;20476;-86
2022/08/07 12:40:08;;;;;;;3.00;0.50;;;25.00;58.60;;;;;;5040628;28;20039;-87
2022/08/07 12:42:35;;;;;;;5.10;0.60;;;25.10;58.00;;;;;;5054758;28;20090;-86
2022/08/07 12:45:07;;;;;;;3.00;0.68;;;25.10;57.50;;;;;;5056915;28;20056;-87
2022/08/07 12:47:42;;;;;;;13.75;6.38;;;25.10;57.70;;;;;;5051598;28;20452;-87
2022/08/07 12:50:35;;;;;;;3.63;1.38;;;25.10;57.10;;;;;;5055081;28;20059;-87
2022/08/07 12:53:16;;;;;;;1.95;0.90;;;25.10;57.40;;;;;;5053540;28;20025;-88
2022/08/07 12:55:54;;;;;;;1.20;0.50;;;25.20;57.20;;;;;;5039544;28;20029;-87
2022/08/07 12:58:21;;;;;;;2.53;0.60;;;25.30;57.20;;;;;;5054960;28;20025;-87
2022/08/07 13:01:12;;;;;;;2.53;0.60;;;25.40;56.20;;;;;;5043678;28;20035;-87
2022/08/07 13:04:07;;;;;;;1.60;0.60;;;25.60;55.90;;;;;;5053160;28;20033;-87
2022/08/07 13:06:45;;;;;;;2.00;0.50;;;25.60;55.00;;;;;;5040715;28;20047;-88
2022/08/07 13:09:20;;;;;;;2.75;0.60;;;25.40;54.70;;;;;;5053630;28;20048;-87
2022/08/07 13:12:04;;;;;;;1.33;0.50;;;25.50;54.00;;;;;;5058873;28;20025;-83
2022/08/07 13:14:53;;;;;;;3.17;0.60;;;25.40;54.30;;;;;;5043988;28;20901;-84
2022/08/07 13:17:42;;;;;;;1.55;0.50;;;25.50;54.10;;;;;;5048573;28;20446;-84
2022/08/07 13:20:19;;;;;;;1.20;0.50;;;25.50;53.70;;;;;;5035781;28;20025;-84
2022/08/07 13:22:54;;;;;;;1.10;0.50;;;25.40;53.40;;;;;;5052284;28;20029;-89
2022/08/07 13:25:38;;;;;;;2.97;0.60;;;25.30;54.10;;;;;;5055541;28;20033;-89